| time (UTC) | temp F | wind direction | speed MPH | gust MPH | rain 1hr in | rain 24hr in | rain mn in | humidity % | barometer mb |
| 20260831191544 | 82 | 205 | 3.0 | 6.0 | 0.00 | 0.28 | 0.00 | 85 | 1010.9 |
| 20260831184543 | 83 | 182 | 4.0 | 10.0 | 0.00 | 0.28 | 0.00 | 82 | 1010.5 |
| 20260831183043 | 84 | 161 | 4.0 | 7.0 | 0.00 | 0.28 | 0.00 | 81 | 1010.7 |
| 20260831181542 | 85 | 215 | 3.0 | 5.0 | 0.00 | 0.28 | 0.00 | 78 | 1011.3 |
| 20260831180046 | 85 | 246 | 1.0 | 5.0 | 0.00 | 0.28 | 0.00 | 80 | 1011.0 |
| 20260831174545 | 84 | 253 | 2.0 | 5.0 | 0.00 | 0.28 | 0.00 | 81 | 1011.4 |
| 20260831173038 | 84 | 250 | 3.0 | 7.0 | 0.00 | 0.28 | 0.00 | 82 | 1011.5 |
| 20260831171536 | 84 | 242 | 2.0 | 6.0 | 0.00 | 0.28 | 0.00 | 81 | 1011.5 |
| 20260831170035 | 84 | 225 | 4.0 | 8.0 | 0.00 | 0.28 | 0.00 | 79 | 1011.6 |
| 20260831164550 | 84 | 205 | 3.0 | 7.0 | 0.00 | 0.28 | 0.00 | 81 | 1011.6 |
| 20260831163031 | 83 | 246 | 3.0 | 7.0 | 0.00 | 0.28 | 0.00 | 81 | 1011.7 |
| 20260831161528 | 82 | 259 | 3.0 | 7.0 | 0.00 | 0.28 | 0.00 | 80 | 1011.6 |
| 20260831160024 | 81 | 259 | 3.0 | 8.0 | 0.00 | 0.28 | 0.00 | 84 | 1011.6 |
| 20260831154522 | 81 | 232 | 4.0 | 8.0 | 0.00 | 0.28 | 0.00 | 83 | 1011.6 |
| 20260831153017 | 79 | 252 | 4.0 | 9.0 | 0.00 | 0.28 | 0.00 | 85 | 1011.2 |
| 20260831151514 | 78 | 251 | 3.0 | 7.0 | 0.00 | 0.28 | 0.00 | 87 | 1011.1 |
| 20260831150012 | 77 | 247 | 3.0 | 6.0 | 0.00 | 0.28 | 0.00 | 85 | 1010.9 |
| 20260831144515 | 77 | 238 | 6.0 | 9.0 | 0.00 | 0.28 | 0.00 | 84 | 1011.0 |
| 20260831143124 | 77 | 244 | 4.0 | 8.0 | 0.00 | 0.28 | 0.00 | 86 | 1011.0 |
| 20260831141550 | 76 | 244 | 5.0 | 9.0 | 0.00 | 0.28 | 0.00 | 87 | 1010.8 |
| 20260831140044 | 75 | 223 | 6.0 | 9.0 | 0.00 | 0.28 | 0.00 | 88 | 1010.5 |
| 20260831134541 | 74 | 232 | 5.0 | 8.0 | 0.00 | 0.28 | 0.00 | 89 | 1010.6 |
| 20260831133036 | 73 | 225 | 3.0 | 6.0 | 0.00 | 0.28 | 0.00 | 92 | 1010.4 |
| 20260831131532 | 72 | 209 | 5.0 | 8.0 | 0.00 | 0.28 | 0.00 | 92 | 1010.5 |
| 20260831130028 | 71 | 234 | 3.0 | 7.0 | 0.00 | 0.28 | 0.00 | 94 | 1010.4 |
| 20260831124525 | 69 | 232 | 2.0 | 4.0 | 0.00 | 0.28 | 0.00 | 94 | 1010.2 |
| 20260831123021 | 69 | 207 | 2.0 | 4.0 | 0.00 | 0.28 | 0.00 | 94 | 1010.1 |
| 20260831121519 | 68 | 207 | 3.0 | 5.0 | 0.00 | 0.28 | 0.00 | 95 | 1010.0 |
| 20260831120031 | 67 | 211 | 0.0 | 1.0 | 0.00 | 0.28 | 0.00 | 94 | 1010.0 |
| 20260831114526 | 68 | 211 | 0.0 | 2.0 | 0.00 | 0.28 | 0.00 | 94 | 1009.8 |
| 20260831113013 | 68 | 211 | 1.0 | 3.0 | 0.00 | 0.28 | 0.00 | 94 | 1009.6 |
| 20260831111511 | 68 | 211 | 2.0 | 3.0 | 0.00 | 0.28 | 0.00 | 95 | 1009.5 |
| 20260831110010 | 68 | 212 | 1.0 | 2.0 | 0.00 | 0.28 | 0.00 | 94 | 1009.5 |
| 20260831104509 | 68 | 212 | 1.0 | 2.0 | 0.00 | 0.28 | 0.00 | 94 | 1009.6 |
| 20260831103007 | 68 | 212 | 1.0 | 2.0 | 0.00 | 0.28 | 0.00 | 93 | 1009.7 |
| 20260831101505 | 69 | 212 | 1.0 | 3.0 | 0.00 | 0.28 | 0.00 | 93 | 1009.6 |
| 20260831100003 | 69 | 212 | 1.0 | 3.0 | 0.00 | 0.28 | 0.00 | 93 | 1009.7 |
| 20260831094502 | 69 | 212 | 1.0 | 3.0 | 0.00 | 0.28 | 0.00 | 93 | 1009.6 |
| 20260831093059 | 70 | 211 | 2.0 | 5.0 | 0.00 | 0.28 | 0.00 | 93 | 1009.7 |
| 20260831091601 | 70 | 208 | 2.0 | 5.0 | 0.00 | 0.28 | 0.00 | 93 | 1009.6 |
| 20260831090055 | 70 | 202 | 2.0 | 4.0 | 0.00 | 0.28 | 0.00 | 92 | 1009.5 |
| 20260831084605 | 71 | 204 | 1.0 | 4.0 | 0.00 | 0.28 | 0.00 | 92 | 1009.6 |
| 20260831083103 | 72 | 194 | 4.0 | 7.0 | 0.00 | 0.28 | 0.00 | 92 | 1009.5 |
| 20260831081549 | 72 | 194 | 3.0 | 8.0 | 0.00 | 0.28 | 0.00 | 92 | 1009.6 |
| 20260831080047 | 72 | 200 | 4.0 | 8.0 | 0.00 | 0.28 | 0.00 | 92 | 1009.7 |
| 20260831074648 | 72 | 202 | 4.0 | 8.0 | 0.00 | 0.28 | 0.00 | 92 | 1009.7 |
| 20260831073045 | 72 | 190 | 4.0 | 7.0 | 0.00 | 0.28 | 0.00 | 92 | 1009.6 |
| 20260831071543 | 72 | 201 | 4.0 | 7.0 | 0.00 | 0.28 | 0.00 | 92 | 1009.6 |
| 20260831070043 | 73 | 198 | 3.0 | 6.0 | 0.00 | 0.28 | 0.00 | 92 | 1009.7 |
| 20260831064538 | 73 | 188 | 4.0 | 7.0 | 0.00 | 0.28 | 0.00 | 91 | 1009.9 |
| 20260831063037 | 73 | 201 | 4.0 | 7.0 | 0.00 | 0.28 | 0.00 | 91 | 1010.1 |
| 20260831061535 | 73 | 188 | 5.0 | 9.0 | 0.00 | 0.28 | 0.00 | 91 | 1010.1 |
| 20260831060033 | 74 | 194 | 5.0 | 10.0 | 0.00 | 0.28 | 0.00 | 90 | 1010.2 |
| 20260831054530 | 74 | 196 | 5.0 | 10.0 | 0.00 | 0.28 | 0.00 | 89 | 1010.3 |
| 20260831053029 | 74 | 175 | 7.0 | 11.0 | 0.00 | 0.28 | 0.00 | 89 | 1010.4 |
| 20260831051526 | 75 | 190 | 6.0 | 12.0 | 0.00 | 0.28 | 0.00 | 88 | 1010.5 |
| 20260831050025 | 75 | 191 | 6.0 | 12.0 | 0.00 | 0.28 | 0.00 | 88 | 1010.4 |
| 20260831044525 | 75 | 189 | 6.0 | 10.0 | 0.00 | 0.28 | 0.28 | 88 | 1010.4 |
| 20260831043024 | 75 | 207 | 7.0 | 10.0 | 0.00 | 0.28 | 0.28 | 87 | 1010.4 |
| 20260831041523 | 75 | 184 | 7.0 | 13.0 | 0.00 | 0.28 | 0.28 | 87 | 1010.3 |
| 20260831040023 | 75 | 181 | 9.0 | 12.0 | 0.00 | 0.28 | 0.28 | 87 | 1010.4 |
| 20260831034522 | 75 | 173 | 6.0 | 14.0 | 0.00 | 0.28 | 0.28 | 87 | 1010.5 |
| 20260831033029 | 75 | 174 | 6.0 | 11.0 | 0.00 | 0.28 | 0.28 | 87 | 1010.6 |
| 20260831031521 | 75 | 175 | 6.0 | 12.0 | 0.00 | 0.28 | 0.28 | 87 | 1010.8 |
| 20260831030021 | 74 | 151 | 6.0 | 11.0 | 0.00 | 0.28 | 0.28 | 87 | 1010.9 |
| 20260831024520 | 74 | 173 | 7.0 | 14.0 | 0.00 | 0.28 | 0.28 | 87 | 1011.0 |
| 20260831023024 | 73 | 176 | 5.0 | 8.0 | 0.00 | 0.28 | 0.28 | 87 | 1011.1 |
| 20260831021517 | 73 | 181 | 6.0 | 11.0 | 0.00 | 0.28 | 0.28 | 88 | 1011.1 |
| 20260831020017 | 73 | 168 | 5.0 | 8.0 | 0.00 | 0.28 | 0.28 | 88 | 1011.3 |
| 20260831014516 | 73 | 169 | 3.0 | 6.0 | 0.00 | 0.28 | 0.28 | 88 | 1011.0 |
| 20260831013017 | 73 | 175 | 3.0 | 9.0 | 0.00 | 0.28 | 0.28 | 88 | 1011.1 |
| 20260831011615 | 73 | 175 | 5.0 | 10.0 | 0.00 | 0.28 | 0.28 | 87 | 1011.0 |
| 20260831010015 | 73 | 178 | 5.0 | 11.0 | 0.00 | 0.28 | 0.28 | 87 | 1010.9 |
| 20260831004514 | 73 | 175 | 6.0 | 12.0 | 0.00 | 0.28 | 0.28 | 87 | 1010.8 |
| 20260831003013 | 73 | 195 | 7.0 | 12.0 | 0.00 | 0.28 | 0.28 | 87 | 1010.9 |
| 20260831001512 | 73 | 192 | 8.0 | 17.0 | 0.00 | 0.28 | 0.28 | 86 | 1010.7 |
| 20260831000012 | 73 | 188 | 7.0 | 13.0 | 0.00 | 0.28 | 0.28 | 86 | 1010.7 |
| 20260830234513 | 73 | 169 | 8.0 | 13.0 | 0.00 | 0.28 | 0.28 | 86 | 1010.7 |
| 20260830233011 | 73 | 180 | 5.0 | 14.0 | 0.00 | 0.28 | 0.28 | 86 | 1010.7 |
| 20260830231513 | 73 | 172 | 9.0 | 16.0 | 0.00 | 0.28 | 0.28 | 87 | 1010.3 |
| 20260830230015 | 73 | 188 | 6.0 | 14.0 | 0.00 | 0.28 | 0.28 | 87 | 1010.5 |
| 20260830224509 | 73 | 178 | 7.0 | 13.0 | 0.00 | 0.28 | 0.28 | 88 | 1010.5 |
| 20260830223009 | 74 | 206 | 6.0 | 12.0 | 0.01 | 0.28 | 0.28 | 88 | 1010.4 |
| 20260830221509 | 74 | 169 | 6.0 | 10.0 | 0.07 | 0.28 | 0.28 | 90 | 1010.4 |
| 20260830220008 | 74 | 200 | 6.0 | 14.0 | 0.07 | 0.28 | 0.28 | 89 | 1010.3 |
| 20260830214507 | 73 | 196 | 6.0 | 12.0 | 0.08 | 0.28 | 0.28 | 92 | 1010.0 |
| 20260830213026 | 72 | 185 | 6.0 | 16.0 | 0.18 | 0.27 | 0.27 | 92 | 1009.8 |
| 20260830211504 | 72 | 172 | 6.0 | 11.0 | 0.21 | 0.21 | 0.21 | 92 | 1010.0 |
| 20260830210003 | 72 | 216 | 4.0 | 10.0 | 0.21 | 0.21 | 0.21 | 92 | 1010.4 |
| 20260830204503 | 72 | 223 | 6.0 | 10.0 | 0.19 | 0.19 | 0.19 | 91 | 1010.1 |
| 20260830203006 | 73 | 184 | 5.0 | 10.0 | 0.08 | 0.08 | 0.08 | 89 | 1009.8 |
| 20260830201602 | 74 | 250 | 6.0 | 12.0 | 0.00 | 0.00 | 0.00 | 86 | 1011.0 |
| 20260830200106 | 77 | 234 | 7.0 | 11.0 | 0.00 | 0.00 | 0.00 | 83 | 1010.9 |
| 20260830194604 | 78 | 227 | 5.0 | 10.0 | 0.00 | 0.00 | 0.00 | 82 | 1010.4 |
| 20260830193127 | 79 | 223 | 8.0 | 12.0 | 0.00 | 0.00 | 0.00 | 78 | 1010.6 |
| 20260830191555 | 78 | 224 | 7.0 | 11.0 | 0.00 | 0.00 | 0.00 | 80 | 1010.7 |